Time;durP1;ratioP1;P1;durP2;ratioP2;P2;SDS_P1;SDS_P2;PMS_P1;PMS_P2;Temp;Humidity;BMP_temperature;BMP_pressure;BME280_temperature;BME280_humidity;BME280_pressure;Samples;Min_cycle;Max_cycle;Signal;HPM_P1;HPM_P2
2023/11/26 00:02:12;;;;;;;20.85;12.38;;;1.20;99.90;;;;;;5091254;28;20043;-71
2023/11/26 00:04:39;;;;;;;18.08;11.18;;;1.10;99.90;;;;;;5072890;28;20036;-70
2023/11/26 00:07:06;;;;;;;20.27;11.07;;;1.10;99.90;;;;;;5073583;28;20492;-69
2023/11/26 00:09:33;;;;;;;24.58;11.48;;;1.10;99.90;;;;;;5072754;28;20048;-70
2023/11/26 00:12:00;;;;;;;20.50;11.05;;;1.10;99.90;;;;;;5090616;28;20203;-70
2023/11/26 00:14:26;;;;;;;25.30;11.95;;;1.10;99.90;;;;;;5091537;28;20045;-70
2023/11/26 00:16:53;;;;;;;24.25;11.85;;;1.10;99.90;;;;;;5092647;28;20047;-72
2023/11/26 00:19:20;;;;;;;18.25;11.27;;;1.10;99.90;;;;;;5089148;28;20039;-71
2023/11/26 00:21:49;;;;;;;21.95;11.23;;;1.00;99.90;;;;;;5092897;28;20442;-70
2023/11/26 00:24:16;;;;;;;22.02;12.73;;;1.00;99.90;;;;;;5092716;28;20036;-70
2023/11/26 00:26:42;;;;;;;20.45;11.85;;;1.00;99.90;;;;;;5092679;28;20472;-71
2023/11/26 00:29:10;;;;;;;20.20;10.98;;;1.00;99.90;;;;;;5091838;28;20131;-71
2023/11/26 00:31:37;;;;;;;21.45;11.85;;;1.00;99.90;;;;;;5090642;28;20036;-71
2023/11/26 00:34:05;;;;;;;18.27;11.20;;;0.90;99.90;;;;;;5092884;28;20040;-71
2023/11/26 00:36:31;;;;;;;20.58;12.13;;;0.90;99.90;;;;;;5091368;28;20047;-71
2023/11/26 00:38:58;;;;;;;20.90;11.55;;;0.90;99.90;;;;;;5091023;28;20198;-71
2023/11/26 00:41:25;;;;;;;19.00;11.85;;;0.90;99.90;;;;;;5092411;28;20047;-70
2023/11/26 00:43:52;;;;;;;22.67;11.55;;;0.90;99.90;;;;;;5091325;28;20044;-71
2023/11/26 00:46:19;;;;;;;20.90;11.45;;;0.90;99.90;;;;;;5074558;28;20101;-71
2023/11/26 00:48:45;;;;;;;22.35;11.40;;;0.90;99.90;;;;;;5091242;28;20513;-71
2023/11/26 00:51:12;;;;;;;24.40;11.80;;;0.90;99.90;;;;;;5091610;28;20047;-70
2023/11/26 00:53:39;;;;;;;18.30;10.95;;;0.90;99.90;;;;;;5092243;28;20048;-70
2023/11/26 00:56:06;;;;;;;19.58;11.85;;;0.90;99.90;;;;;;5090134;28;20571;-70
2023/11/26 00:58:33;;;;;;;20.00;11.30;;;0.90;99.90;;;;;;5071703;28;20041;-70
2023/11/26 01:00:59;;;;;;;25.23;12.30;;;0.90;99.90;;;;;;5079846;28;20052;-71
2023/11/26 01:03:26;;;;;;;20.80;11.43;;;0.90;99.90;;;;;;5090095;28;20047;-71
2023/11/26 01:05:54;;;;;;;24.17;12.02;;;0.80;99.90;;;;;;5074209;28;20041;-71
2023/11/26 01:08:21;;;;;;;21.48;11.52;;;0.80;99.90;;;;;;5092290;28;20040;-71
2023/11/26 01:10:48;;;;;;;23.08;12.50;;;0.80;99.90;;;;;;5082602;28;20045;-71
2023/11/26 01:13:15;;;;;;;23.73;12.40;;;0.80;99.90;;;;;;5071780;28;20060;-71
2023/11/26 01:15:41;;;;;;;21.20;11.68;;;0.80;99.90;;;;;;5078060;28;20539;-71
2023/11/26 01:18:08;;;;;;;22.08;12.25;;;0.80;99.90;;;;;;5073177;28;20040;-70
2023/11/26 01:20:36;;;;;;;23.10;12.18;;;0.80;99.90;;;;;;5091056;28;20052;-72
2023/11/26 01:23:03;;;;;;;22.50;12.60;;;0.80;99.90;;;;;;5075749;28;20047;-71
2023/11/26 01:25:30;;;;;;;20.08;11.93;;;0.80;99.90;;;;;;5072826;28;20041;-70
2023/11/26 01:27:57;;;;;;;22.67;12.45;;;0.80;99.90;;;;;;5083308;28;20105;-70
2023/11/26 01:30:24;;;;;;;20.10;11.43;;;0.80;99.90;;;;;;5094293;28;20454;-70
2023/11/26 01:32:52;;;;;;;19.50;11.63;;;0.70;99.90;;;;;;5094529;28;20044;-70
2023/11/26 01:35:20;;;;;;;18.17;11.32;;;0.70;99.90;;;;;;5095510;28;20110;-70
2023/11/26 01:37:47;;;;;;;20.35;12.10;;;0.70;99.90;;;;;;5085753;28;20045;-70
2023/11/26 01:40:15;;;;;;;23.10;11.60;;;0.80;99.90;;;;;;5074559;28;20079;-70
2023/11/26 01:42:43;;;;;;;19.85;11.30;;;0.70;99.90;;;;;;5076195;28;20041;-70
2023/11/26 01:45:13;;;;;;;24.17;12.20;;;0.80;99.90;;;;;;5083330;28;20469;-70
2023/11/26 01:47:40;;;;;;;23.13;11.40;;;0.80;99.90;;;;;;5095613;28;20083;-70
2023/11/26 01:50:08;;;;;;;22.33;11.43;;;0.80;99.90;;;;;;5091950;28;20036;-70
2023/11/26 01:52:35;;;;;;;21.58;11.98;;;0.70;99.90;;;;;;5089073;28;20052;-70
2023/11/26 01:55:02;;;;;;;19.92;11.48;;;0.80;99.90;;;;;;5092280;28;20123;-70
2023/11/26 01:57:29;;;;;;;20.65;11.85;;;0.80;99.90;;;;;;5095291;28;20036;-70
2023/11/26 01:59:55;;;;;;;21.67;11.63;;;0.80;99.90;;;;;;5093673;28;20051;-70
2023/11/26 02:02:22;;;;;;;22.48;11.07;;;0.80;99.90;;;;;;5093971;28;20047;-70
2023/11/26 02:04:50;;;;;;;21.95;11.80;;;0.80;99.90;;;;;;5094351;28;20397;-71
2023/11/26 02:07:17;;;;;;;22.48;11.65;;;0.80;99.90;;;;;;5095203;28;20051;-70
2023/11/26 02:09:43;;;;;;;20.13;11.25;;;0.80;99.90;;;;;;5095120;28;20116;-70
2023/11/26 02:12:11;;;;;;;18.80;11.40;;;0.80;99.90;;;;;;5095004;28;20047;-70
2023/11/26 02:14:37;;;;;;;24.63;12.57;;;0.80;99.90;;;;;;5095107;28;20070;-70
2023/11/26 02:17:05;;;;;;;19.08;11.18;;;0.70;99.90;;;;;;5095189;28;20485;-70
2023/11/26 02:19:31;;;;;;;24.23;12.75;;;0.70;99.90;;;;;;5093656;28;20558;-70
2023/11/26 02:22:00;;;;;;;19.45;10.68;;;0.70;99.90;;;;;;5093389;28;20044;-70
2023/11/26 02:24:27;;;;;;;20.23;10.68;;;0.60;99.90;;;;;;5093506;28;20090;-71
2023/11/26 02:26:54;;;;;;;21.95;10.80;;;0.70;99.90;;;;;;5094717;28;20060;-70
2023/11/26 02:29:21;;;;;;;20.15;10.40;;;0.60;99.90;;;;;;5093283;28;20039;-70
2023/11/26 02:31:48;;;;;;;18.42;10.27;;;0.60;99.90;;;;;;5094822;28;20044;-70
2023/11/26 02:34:15;;;;;;;19.67;10.55;;;0.60;99.90;;;;;;5078674;28;20041;-71
2023/11/26 02:36:42;;;;;;;18.75;9.85;;;0.60;99.90;;;;;;5081166;28;20140;-70
2023/11/26 02:39:09;;;;;;;16.90;9.65;;;0.60;99.90;;;;;;5073644;28;20053;-70
2023/11/26 02:41:36;;;;;;;18.73;10.25;;;0.60;99.90;;;;;;5074997;28;20048;-71
2023/11/26 02:44:03;;;;;;;15.95;9.65;;;0.60;99.90;;;;;;5073677;28;20385;-71
2023/11/26 02:46:30;;;;;;;17.30;9.43;;;0.50;99.90;;;;;;5082307;28;20101;-71
2023/11/26 02:48:56;;;;;;;17.60;9.48;;;0.60;99.90;;;;;;5094623;28;20040;-70
2023/11/26 02:51:23;;;;;;;21.15;9.27;;;0.60;99.90;;;;;;5093035;28;20093;-71
2023/11/26 02:53:50;;;;;;;19.05;10.40;;;0.60;99.90;;;;;;5092970;28;20050;-71
2023/11/26 02:56:17;;;;;;;17.00;9.65;;;0.60;99.90;;;;;;5073753;28;20596;-71
2023/11/26 02:58:44;;;;;;;18.65;10.30;;;0.60;99.90;;;;;;5074496;28;20047;-71
2023/11/26 03:01:11;;;;;;;19.00;9.98;;;0.60;99.90;;;;;;5073360;28;20032;-71
2023/11/26 03:03:39;;;;;;;22.25;10.57;;;0.50;99.90;;;;;;5073079;28;20039;-71
2023/11/26 03:06:06;;;;;;;21.00;10.57;;;0.50;99.90;;;;;;5073170;28;20041;-71
2023/11/26 03:08:33;;;;;;;22.73;9.80;;;0.50;99.90;;;;;;5074579;28;20417;-71
2023/11/26 03:13:46;;;;;;;18.60;10.38;;;0.50;99.90;;;;;;5073735;28;20044;-70
2023/11/26 03:16:15;;;;;;;22.02;10.57;;;0.50;99.90;;;;;;5073086;28;20040;-71
2023/11/26 03:18:42;;;;;;;22.95;10.73;;;0.50;99.90;;;;;;5072892;28;20044;-70
2023/11/26 03:21:15;;;;;;;17.83;10.48;;;0.60;99.90;;;;;;5074252;28;20033;-70
2023/11/26 03:23:42;;;;;;;18.80;10.93;;;0.60;99.90;;;;;;5074408;28;20047;-70
2023/11/26 03:26:09;;;;;;;16.73;9.93;;;0.60;99.90;;;;;;5090173;28;20048;-70
2023/11/26 03:28:36;;;;;;;20.63;10.60;;;0.60;99.90;;;;;;5093718;28;20127;-71
2023/11/26 03:31:03;;;;;;;16.58;10.32;;;0.70;99.90;;;;;;5093711;28;20039;-70
2023/11/26 03:33:29;;;;;;;17.30;10.75;;;0.70;99.90;;;;;;5093621;28;20445;-70
2023/11/26 03:35:56;;;;;;;21.17;10.38;;;0.70;99.90;;;;;;5092234;28;20044;-70
2023/11/26 03:38:23;;;;;;;18.90;10.32;;;0.70;99.90;;;;;;5093057;28;20095;-70
2023/11/26 03:40:50;;;;;;;19.45;10.70;;;0.80;99.90;;;;;;5092324;28;20078;-70
2023/11/26 03:43:17;;;;;;;18.35;10.02;;;0.70;99.90;;;;;;5093293;28;20038;-70
2023/11/26 03:45:44;;;;;;;17.95;9.55;;;0.80;99.90;;;;;;5092092;28;20040;-70
2023/11/26 03:48:11;;;;;;;15.57;9.65;;;0.80;99.90;;;;;;5093061;28;20500;-70
2023/11/26 03:50:38;;;;;;;14.68;9.48;;;0.80;99.90;;;;;;5093073;28;20143;-71
2023/11/26 03:53:05;;;;;;;19.27;9.00;;;0.90;99.90;;;;;;5092096;28;20050;-70
2023/11/26 03:55:33;;;;;;;17.58;9.20;;;0.90;99.90;;;;;;5091176;28;20123;-71
2023/11/26 03:58:00;;;;;;;18.05;10.23;;;0.90;99.90;;;;;;5091534;28;20127;-70
2023/11/26 04:00:27;;;;;;;18.90;10.10;;;0.90;99.90;;;;;;5092362;28;20063;-71
2023/11/26 04:02:54;;;;;;;15.77;9.70;;;1.00;99.90;;;;;;5092916;28;20032;-70
2023/11/26 04:05:21;;;;;;;14.77;9.30;;;1.00;99.90;;;;;;5093020;28;20119;-70
2023/11/26 04:07:48;;;;;;;17.33;9.88;;;1.00;99.90;;;;;;5091661;28;20032;-70
2023/11/26 04:10:15;;;;;;;18.85;9.52;;;1.00;99.90;;;;;;5091876;28;20039;-71
2023/11/26 04:12:53;;;;;;;19.00;9.63;;;1.00;99.90;;;;;;5091521;28;20489;-71
2023/11/26 04:15:22;;;;;;;15.00;8.82;;;1.00;99.90;;;;;;5091673;28;20089;-70
2023/11/26 04:17:49;;;;;;;18.52;9.68;;;1.10;99.90;;;;;;5092592;28;20440;-70
2023/11/26 04:20:16;;;;;;;14.98;9.18;;;1.00;99.90;;;;;;5092591;28;20481;-69
2023/11/26 04:22:43;;;;;;;15.60;9.77;;;1.00;99.90;;;;;;5092903;28;20065;-71
2023/11/26 04:25:11;;;;;;;16.60;9.38;;;1.10;99.90;;;;;;5092762;28;20042;-70
2023/11/26 04:27:38;;;;;;;19.40;9.93;;;1.00;99.90;;;;;;5092629;28;20032;-70
2023/11/26 04:30:06;;;;;;;17.38;10.48;;;1.00;99.90;;;;;;5092458;28;20044;-70
2023/11/26 04:32:33;;;;;;;14.52;9.68;;;1.00;99.90;;;;;;5091239;28;20051;-70
2023/11/26 04:35:00;;;;;;;16.92;9.07;;;1.00;99.90;;;;;;5092569;28;20482;-70
2023/11/26 04:37:27;;;;;;;17.20;10.50;;;1.00;99.90;;;;;;5092464;28;20044;-71
2023/11/26 04:39:54;;;;;;;16.25;10.05;;;1.00;99.90;;;;;;5090988;28;20045;-70
2023/11/26 04:42:21;;;;;;;15.85;9.07;;;1.00;99.90;;;;;;5091466;28;20040;-70
2023/11/26 04:44:47;;;;;;;21.75;10.43;;;0.90;99.90;;;;;;5092319;28;20089;-70
2023/11/26 04:47:14;;;;;;;17.10;10.00;;;0.90;99.90;;;;;;5092392;28;20074;-70
2023/11/26 04:49:41;;;;;;;15.65;9.93;;;1.00;99.90;;;;;;5092435;28;20040;-70
2023/11/26 04:52:11;;;;;;;17.25;10.13;;;1.00;99.90;;;;;;5092741;28;20086;-70
2023/11/26 04:54:38;;;;;;;15.98;9.55;;;0.90;99.90;;;;;;5090564;28;20040;-70
2023/11/26 04:57:04;;;;;;;14.98;9.90;;;0.90;99.90;;;;;;5090797;28;20051;-70
2023/11/26 04:59:31;;;;;;;17.83;9.98;;;0.90;99.90;;;;;;5092463;28;20040;-70
2023/11/26 05:02:00;;;;;;;14.85;8.73;;;0.90;99.90;;;;;;5093271;28;20487;-70
2023/11/26 05:04:27;;;;;;;16.02;9.63;;;0.90;99.90;;;;;;5096358;28;20043;-70
2023/11/26 05:06:54;;;;;;;12.63;8.88;;;0.90;99.90;;;;;;5096383;28;20067;-70
2023/11/26 05:09:20;;;;;;;19.50;10.63;;;0.90;99.90;;;;;;5096352;28;20381;-70
2023/11/26 05:11:47;;;;;;;16.85;10.18;;;0.90;99.90;;;;;;5096394;28;20480;-70
2023/11/26 05:14:14;;;;;;;14.68;8.85;;;0.90;99.90;;;;;;5095175;28;20090;-70
2023/11/26 05:16:41;;;;;;;16.65;9.40;;;1.00;99.90;;;;;;5096252;28;20114;-70
2023/11/26 05:19:08;;;;;;;15.20;8.90;;;1.00;99.90;;;;;;5094852;28;20476;-70
2023/11/26 05:21:34;;;;;;;18.85;9.18;;;0.90;99.90;;;;;;5094805;28;20500;-70
2023/11/26 05:24:01;;;;;;;15.95;9.27;;;0.90;99.90;;;;;;5096183;28;20036;-70
2023/11/26 05:26:28;;;;;;;15.15;9.20;;;0.90;99.90;;;;;;5095860;28;20036;-70
2023/11/26 05:28:56;;;;;;;18.83;10.02;;;0.90;99.90;;;;;;5095736;28;20044;-70
2023/11/26 05:31:23;;;;;;;18.17;9.60;;;1.00;99.90;;;;;;5096194;28;20121;-70
2023/11/26 05:33:54;;;;;;;14.40;9.65;;;1.00;99.90;;;;;;5095754;28;20032;-70
2023/11/26 05:36:21;;;;;;;17.50;9.15;;;1.00;99.90;;;;;;5095776;28;20099;-70
2023/11/26 05:38:47;;;;;;;16.33;9.52;;;1.00;99.90;;;;;;5077378;28;20059;-70
2023/11/26 05:41:14;;;;;;;15.27;9.50;;;1.00;99.90;;;;;;5094480;28;20143;-70
2023/11/26 05:43:41;;;;;;;17.88;9.80;;;0.90;99.90;;;;;;5094217;28;20072;-70
2023/11/26 05:46:08;;;;;;;18.88;10.40;;;0.90;99.90;;;;;;5094497;28;20044;-70
2023/11/26 05:48:35;;;;;;;14.52;9.20;;;0.90;99.90;;;;;;5095572;28;20041;-70
2023/11/26 05:51:02;;;;;;;14.90;9.68;;;0.80;99.90;;;;;;5095532;28;20119;-70
2023/11/26 05:53:32;;;;;;;15.32;9.68;;;0.80;99.90;;;;;;5095250;28;20123;-70
2023/11/26 05:55:59;;;;;;;19.17;10.07;;;0.80;99.90;;;;;;5094221;28;20059;-71
2023/11/26 05:58:25;;;;;;;18.85;10.07;;;0.80;99.90;;;;;;5095287;28;20040;-70
2023/11/26 06:00:53;;;;;;;15.57;9.43;;;0.70;99.90;;;;;;5095270;28;20512;-70
2023/11/26 06:03:21;;;;;;;15.35;9.32;;;0.70;99.90;;;;;;5095294;28;20047;-70
2023/11/26 06:05:48;;;;;;;18.77;10.10;;;0.60;99.90;;;;;;5095167;28;20047;-70
2023/11/26 06:08:16;;;;;;;16.35;9.45;;;0.70;99.90;;;;;;5095135;28;20044;-70
2023/11/26 06:10:43;;;;;;;19.38;8.98;;;0.70;99.90;;;;;;5095156;28;20043;-70
2023/11/26 06:13:09;;;;;;;14.73;9.82;;;0.70;99.90;;;;;;5094705;28;20046;-70
2023/11/26 06:15:36;;;;;;;17.40;8.98;;;0.70;99.90;;;;;;5093707;28;20051;-70
2023/11/26 06:18:03;;;;;;;21.55;10.05;;;0.70;99.90;;;;;;5094724;28;20036;-70
2023/11/26 06:20:30;;;;;;;19.30;9.55;;;0.70;99.90;;;;;;5094952;28;20028;-72
2023/11/26 06:22:57;;;;;;;18.33;10.00;;;0.70;99.90;;;;;;5094808;28;20044;-70
2023/11/26 06:25:24;;;;;;;17.98;10.18;;;0.80;99.90;;;;;;5094987;28;20070;-70
2023/11/26 06:27:51;;;;;;;17.55;9.85;;;0.80;99.90;;;;;;5095029;28;20032;-70
2023/11/26 06:30:18;;;;;;;20.42;10.50;;;0.70;99.90;;;;;;5094785;28;20439;-69
2023/11/26 06:32:44;;;;;;;23.65;11.10;;;0.70;99.90;;;;;;5094674;28;20058;-69
2023/11/26 06:35:12;;;;;;;15.27;9.45;;;0.70;99.90;;;;;;5094745;28;20040;-69
2023/11/26 06:37:39;;;;;;;20.80;9.93;;;0.70;99.90;;;;;;5093218;28;20052;-69
2023/11/26 06:40:08;;;;;;;21.05;9.95;;;0.80;99.90;;;;;;5093344;28;20408;-69
2023/11/26 06:42:35;;;;;;;18.40;10.30;;;0.80;99.90;;;;;;5094373;28;20040;-69
2023/11/26 06:45:02;;;;;;;17.35;9.30;;;0.80;99.90;;;;;;5093246;28;20036;-69
2023/11/26 06:47:29;;;;;;;16.02;9.30;;;0.80;99.90;;;;;;5093115;28;20036;-69
2023/11/26 06:49:57;;;;;;;16.42;9.80;;;0.80;99.90;;;;;;5094272;28;20111;-69
2023/11/26 06:52:24;;;;;;;18.08;10.63;;;0.80;99.90;;;;;;5094396;28;20041;-69
2023/11/26 06:54:50;;;;;;;16.52;9.30;;;0.80;99.90;;;;;;5094467;28;20118;-69
2023/11/26 06:57:17;;;;;;;18.05;9.98;;;0.80;99.90;;;;;;5094117;28;20101;-68
2023/11/26 06:59:44;;;;;;;20.30;10.20;;;0.90;99.90;;;;;;5093955;28;20111;-69
2023/11/26 07:02:11;;;;;;;18.73;10.07;;;0.90;99.90;;;;;;5094157;28;20036;-71
2023/11/26 07:04:38;;;;;;;17.30;10.23;;;0.90;99.90;;;;;;5092675;28;20040;-70
2023/11/26 07:07:05;;;;;;;16.50;9.98;;;0.90;99.90;;;;;;5094306;28;20047;-70
2023/11/26 07:09:32;;;;;;;14.73;9.43;;;0.90;99.90;;;;;;5093857;28;20093;-70
2023/11/26 07:11:59;;;;;;;19.02;10.30;;;0.90;99.90;;;;;;5092817;28;20051;-70
2023/11/26 07:14:26;;;;;;;16.35;9.75;;;1.00;99.90;;;;;;5093992;28;20075;-70
2023/11/26 07:16:54;;;;;;;17.33;9.63;;;0.90;99.90;;;;;;5093702;28;20051;-70
2023/11/26 07:19:21;;;;;;;16.73;9.88;;;1.00;99.90;;;;;;5093686;28;20126;-70
2023/11/26 07:21:48;;;;;;;16.83;10.43;;;1.00;99.90;;;;;;5092801;28;20050;-70
2023/11/26 07:24:15;;;;;;;17.35;10.00;;;1.00;99.90;;;;;;5093186;28;20059;-70
2023/11/26 07:26:42;;;;;;;16.17;9.85;;;1.00;99.90;;;;;;5093312;28;20036;-71
2023/11/26 07:29:09;;;;;;;19.98;10.35;;;1.00;99.90;;;;;;5093823;28;20066;-70
2023/11/26 07:31:37;;;;;;;16.63;10.05;;;1.00;99.90;;;;;;5093515;28;20055;-70
2023/11/26 07:34:05;;;;;;;15.80;10.20;;;1.00;99.90;;;;;;5093815;28;20042;-70
2023/11/26 07:36:32;;;;;;;15.98;10.27;;;1.00;99.90;;;;;;5093066;28;20051;-71
2023/11/26 07:38:59;;;;;;;19.90;10.82;;;1.00;99.90;;;;;;5093484;28;20048;-70
2023/11/26 07:41:26;;;;;;;17.00;9.93;;;1.00;99.90;;;;;;5093793;28;20062;-70
2023/11/26 07:43:55;;;;;;;17.60;11.35;;;1.10;99.90;;;;;;5092430;28;20059;-70
2023/11/26 07:46:22;;;;;;;18.80;9.82;;;1.10;99.90;;;;;;5093831;28;20460;-72
2023/11/26 07:48:49;;;;;;;15.55;9.80;;;1.10;99.90;;;;;;5093501;28;20133;-70
2023/11/26 07:51:16;;;;;;;20.58;10.00;;;1.10;99.90;;;;;;5093431;28;20097;-70
2023/11/26 07:53:43;;;;;;;19.40;10.68;;;1.10;99.90;;;;;;5093640;28;20101;-70
2023/11/26 07:56:10;;;;;;;19.60;10.23;;;1.10;99.90;;;;;;5093467;28;20442;-70
2023/11/26 07:58:37;;;;;;;18.25;10.60;;;1.10;99.90;;;;;;5093289;28;20044;-70
2023/11/26 08:01:05;;;;;;;16.35;10.55;;;1.10;99.90;;;;;;5093343;28;20105;-70
2023/11/26 08:03:32;;;;;;;18.88;10.43;;;1.20;99.90;;;;;;5093377;28;20124;-70
2023/11/26 08:06:00;;;;;;;17.33;10.50;;;1.20;99.90;;;;;;5093268;28;20036;-70
2023/11/26 08:08:34;;;;;;;20.25;10.05;;;1.20;99.90;;;;;;5093207;28;20107;-70
2023/11/26 08:11:01;;;;;;;17.52;9.57;;;1.20;99.90;;;;;;5093146;28;20131;-70
2023/11/26 08:13:28;;;;;;;15.98;9.00;;;1.10;99.90;;;;;;5093113;28;20036;-70
2023/11/26 08:15:58;;;;;;;21.02;10.20;;;1.10;99.90;;;;;;5093217;28;20396;-70
2023/11/26 08:18:25;;;;;;;14.80;9.15;;;1.00;99.90;;;;;;5093221;28;20097;-70
2023/11/26 08:20:53;;;;;;;15.35;9.93;;;1.00;99.90;;;;;;5093016;28;20396;-71
2023/11/26 08:23:20;;;;;;;16.55;10.00;;;1.10;99.90;;;;;;5093109;28;20374;-70
2023/11/26 08:25:47;;;;;;;17.75;9.38;;;1.10;99.90;;;;;;5092877;28;20067;-70
2023/11/26 08:28:27;;;;;;;21.08;10.07;;;1.00;99.90;;;;;;5092958;28;20040;-70
2023/11/26 08:30:55;;;;;;;16.67;9.15;;;1.00;99.90;;;;;;5093339;28;20051;-70
2023/11/26 08:33:22;;;;;;;18.13;10.15;;;1.10;99.90;;;;;;5093325;28;20036;-70
2023/11/26 08:35:59;;;;;;;16.67;10.13;;;1.10;99.90;;;;;;5092467;28;20065;-70
2023/11/26 08:38:28;;;;;;;15.60;10.20;;;1.10;99.90;;;;;;5090642;28;20481;-71
2023/11/26 08:40:54;;;;;;;21.38;11.65;;;1.10;99.90;;;;;;5097783;28;20040;-70
2023/11/26 08:43:22;;;;;;;17.50;11.20;;;1.20;99.90;;;;;;5097090;28;20044;-70
2023/11/26 08:45:51;;;;;;;17.00;11.70;;;1.20;99.90;;;;;;5097238;28;20048;-70
2023/11/26 08:48:18;;;;;;;17.40;11.77;;;1.20;99.90;;;;;;5095860;28;20040;-70
2023/11/26 08:50:46;;;;;;;16.80;12.10;;;1.30;99.90;;;;;;5096967;28;20035;-71
2023/11/26 08:53:13;;;;;;;23.05;12.05;;;1.30;99.90;;;;;;5096889;28;20089;-71
2023/11/26 08:55:40;;;;;;;19.85;12.05;;;1.30;99.90;;;;;;5095728;28;20055;-71
2023/11/26 08:58:07;;;;;;;20.95;12.98;;;1.30;99.90;;;;;;5096773;28;20036;-70
2023/11/26 09:00:34;;;;;;;19.58;12.80;;;1.30;99.90;;;;;;5093189;28;20055;-71
2023/11/26 09:03:00;;;;;;;21.23;12.15;;;1.30;99.90;;;;;;5076398;28;20507;-71
2023/11/26 09:05:27;;;;;;;19.58;11.98;;;1.40;99.90;;;;;;5076841;28;20086;-71
2023/11/26 09:07:54;;;;;;;20.20;11.43;;;1.50;99.90;;;;;;5076709;28;20059;-71
2023/11/26 09:10:21;;;;;;;17.83;12.15;;;1.60;99.90;;;;;;5076679;28;20036;-71
2023/11/26 09:12:48;;;;;;;22.58;12.75;;;1.70;99.90;;;;;;5075543;28;20405;-71
2023/11/26 09:15:16;;;;;;;19.38;11.13;;;1.70;99.90;;;;;;5076770;28;20187;-71
2023/11/26 09:17:43;;;;;;;18.55;11.75;;;1.80;99.90;;;;;;5076829;28;20044;-71
2023/11/26 09:20:11;;;;;;;18.52;12.02;;;1.90;99.90;;;;;;5076852;28;20040;-71
2023/11/26 09:22:39;;;;;;;19.10;11.52;;;1.90;99.90;;;;;;5077019;28;20045;-71
2023/11/26 09:25:06;;;;;;;16.55;11.77;;;2.00;99.90;;;;;;5076596;28;20086;-71
2023/11/26 09:27:33;;;;;;;16.88;10.75;;;2.10;99.90;;;;;;5075026;28;20079;-71
2023/11/26 09:30:00;;;;;;;19.88;11.93;;;2.10;99.90;;;;;;5075534;28;20044;-71
2023/11/26 09:32:27;;;;;;;16.02;11.52;;;2.20;99.90;;;;;;5077115;28;20036;-71
2023/11/26 09:34:54;;;;;;;20.13;11.63;;;2.30;99.90;;;;;;5076501;28;20487;-71
2023/11/26 09:37:21;;;;;;;16.98;11.65;;;2.40;99.90;;;;;;5076366;28;20102;-71
2023/11/26 09:39:47;;;;;;;17.58;10.77;;;2.50;99.90;;;;;;5074974;28;20049;-71
2023/11/26 09:42:14;;;;;;;17.45;11.10;;;2.50;99.90;;;;;;5076552;28;20040;-70
2023/11/26 09:44:41;;;;;;;15.77;10.95;;;2.60;99.90;;;;;;5076549;28;20519;-71
2023/11/26 09:47:10;;;;;;;16.48;10.18;;;2.60;99.90;;;;;;5076367;28;20045;-70
2023/11/26 09:49:37;;;;;;;15.20;8.23;;;2.70;99.90;;;;;;5075552;28;20033;-70
2023/11/26 09:52:05;;;;;;;14.80;7.25;;;2.80;99.90;;;;;;5076037;28;20052;-71
2023/11/26 09:54:32;;;;;;;12.48;7.05;;;2.90;99.90;;;;;;5074986;28;20396;-71
2023/11/26 09:57:00;;;;;;;15.07;9.20;;;3.00;99.90;;;;;;5076343;28;20101;-71
2023/11/26 09:59:27;;;;;;;18.63;12.95;;;3.10;99.90;;;;;;5076109;28;20044;-70
2023/11/26 10:01:53;;;;;;;16.27;10.55;;;3.10;99.90;;;;;;5075969;28;20048;-71
2023/11/26 10:04:21;;;;;;;13.23;9.95;;;3.20;99.90;;;;;;5074791;28;20033;-71
2023/11/26 10:06:48;;;;;;;18.17;9.68;;;3.30;99.90;;;;;;5075028;28;20119;-71
2023/11/26 10:09:17;;;;;;;20.60;9.82;;;3.40;99.90;;;;;;5076038;28;20040;-71
2023/11/26 10:11:44;;;;;;;14.43;8.95;;;3.50;99.90;;;;;;5075694;28;20113;-70
2023/11/26 10:14:11;;;;;;;15.43;8.30;;;3.60;99.90;;;;;;5076316;28;20040;-70
2023/11/26 10:16:39;;;;;;;13.02;7.82;;;3.70;99.90;;;;;;5075633;28;20075;-69
2023/11/26 10:19:06;;;;;;;14.45;7.55;;;3.70;99.90;;;;;;5075848;28;20474;-70
2023/11/26 10:21:33;;;;;;;12.80;7.32;;;3.80;99.90;;;;;;5074357;28;20044;-70
2023/11/26 10:24:06;;;;;;;13.43;6.60;;;3.90;99.90;;;;;;5075901;28;20051;-70
2023/11/26 10:26:33;;;;;;;14.30;6.75;;;4.00;99.90;;;;;;5075370;28;20059;-70
2023/11/26 10:29:00;;;;;;;11.32;5.72;;;4.00;99.90;;;;;;5074359;28;20094;-70
2023/11/26 10:31:27;;;;;;;12.30;6.30;;;4.10;99.90;;;;;;5076109;28;20037;-70
2023/11/26 10:33:54;;;;;;;15.77;6.00;;;4.20;99.90;;;;;;5075700;28;20452;-70
2023/11/26 10:36:21;;;;;;;13.23;5.18;;;4.30;99.90;;;;;;5089116;28;20119;-70
2023/11/26 10:38:48;;;;;;;13.48;5.93;;;4.30;99.90;;;;;;5094500;28;20048;-70
2023/11/26 10:41:15;;;;;;;13.13;5.57;;;4.40;99.90;;;;;;5087228;28;20044;-70
2023/11/26 10:43:41;;;;;;;10.90;5.18;;;4.50;99.90;;;;;;5094869;28;20044;-71
2023/11/26 10:46:19;;;;;;;8.88;4.68;;;4.60;99.90;;;;;;5075314;28;20040;-70
2023/11/26 10:48:46;;;;;;;7.82;4.20;;;4.70;99.90;;;;;;5075413;28;20047;-71
2023/11/26 10:51:13;;;;;;;11.43;4.28;;;4.70;99.90;;;;;;5075197;28;20047;-70
2023/11/26 10:53:49;;;;;;;11.23;5.10;;;4.80;99.90;;;;;;5075201;28;20044;-70
2023/11/26 10:56:16;;;;;;;11.73;4.45;;;4.90;99.90;;;;;;5075137;28;20040;-71
2023/11/26 10:58:43;;;;;;;8.15;4.40;;;4.90;99.90;;;;;;5083311;28;20040;-70
2023/11/26 11:01:10;;;;;;;11.48;4.70;;;4.90;99.90;;;;;;5093708;28;20101;-71
2023/11/26 11:03:37;;;;;;;10.48;4.00;;;5.00;99.90;;;;;;5094213;28;20040;-70
2023/11/26 11:06:05;;;;;;;10.93;4.43;;;5.00;99.90;;;;;;5077608;28;20036;-70
2023/11/26 11:08:32;;;;;;;13.10;4.63;;;5.00;99.90;;;;;;5074536;28;20041;-70
2023/11/26 11:10:58;;;;;;;9.32;4.57;;;5.00;99.90;;;;;;5076077;28;20037;-70
2023/11/26 11:13:26;;;;;;;9.43;4.45;;;5.00;99.90;;;;;;5093990;28;20455;-71
2023/11/26 11:15:53;;;;;;;10.40;4.47;;;5.00;99.90;;;;;;5088570;28;20044;-71
2023/11/26 11:18:20;;;;;;;9.98;4.68;;;5.00;99.90;;;;;;5093049;28;20048;-70
2023/11/26 11:20:47;;;;;;;9.82;4.60;;;5.00;99.90;;;;;;5092025;28;20067;-70
2023/11/26 11:23:14;;;;;;;10.35;4.97;;;5.00;99.90;;;;;;5088641;28;20389;-71
2023/11/26 11:25:40;;;;;;;9.93;5.15;;;5.10;99.90;;;;;;5093880;28;20524;-70
2023/11/26 11:28:09;;;;;;;12.95;4.97;;;5.20;99.90;;;;;;5090049;28;20074;-71
2023/11/26 11:30:35;;;;;;;14.43;5.55;;;5.20;99.90;;;;;;5093885;28;20050;-70
2023/11/26 11:33:03;;;;;;;10.23;5.30;;;5.20;99.90;;;;;;5091105;28;20033;-71
2023/11/26 11:35:32;;;;;;;11.38;4.70;;;5.30;99.90;;;;;;5093688;28;20040;-71
2023/11/26 11:37:59;;;;;;;10.57;5.05;;;5.40;99.90;;;;;;5093795;28;20127;-70
2023/11/26 11:40:26;;;;;;;13.15;4.80;;;5.40;99.90;;;;;;5088719;28;20040;-71
2023/11/26 11:42:55;;;;;;;8.98;4.53;;;5.40;99.90;;;;;;5079384;28;20409;-70
2023/11/26 11:45:22;;;;;;;11.35;4.60;;;5.50;99.90;;;;;;5085669;28;20489;-70
2023/11/26 11:47:49;;;;;;;12.80;4.70;;;5.50;99.90;;;;;;5072863;28;20093;-70
2023/11/26 11:50:16;;;;;;;10.45;4.38;;;5.60;99.90;;;;;;5074129;28;20043;-70
2023/11/26 11:52:43;;;;;;;9.30;3.63;;;5.70;99.90;;;;;;5092694;28;20058;-71
2023/11/26 11:55:10;;;;;;;8.73;3.67;;;5.70;99.90;;;;;;5093581;28;20500;-71
2023/11/26 11:57:37;;;;;;;13.27;3.80;;;5.80;99.90;;;;;;5092017;28;20378;-71
2023/11/26 12:00:05;;;;;;;10.25;3.20;;;5.80;99.90;;;;;;5093588;28;20044;-70
2023/11/26 12:02:35;;;;;;;9.65;3.55;;;5.90;99.90;;;;;;5078530;28;20390;-71
2023/11/26 12:05:03;;;;;;;6.97;3.38;;;6.00;99.90;;;;;;5073976;28;20461;-71
2023/11/26 12:07:31;;;;;;;7.75;2.80;;;6.00;99.90;;;;;;5091826;28;20052;-70
2023/11/26 12:10:01;;;;;;;9.68;2.65;;;6.00;99.90;;;;;;5091983;28;20074;-70
2023/11/26 12:12:28;;;;;;;7.50;2.50;;;6.00;99.90;;;;;;5091710;28;20109;-70
2023/11/26 12:14:57;;;;;;;8.57;2.65;;;6.10;99.90;;;;;;5075177;28;20460;-70
2023/11/26 12:17:25;;;;;;;10.07;2.40;;;6.00;99.90;;;;;;5091525;28;20105;-71
2023/11/26 12:19:52;;;;;;;7.13;2.53;;;6.10;99.90;;;;;;5093069;28;20040;-70
2023/11/26 12:22:19;;;;;;;5.38;2.40;;;6.10;99.90;;;;;;5092881;28;20044;-71
2023/11/26 12:24:46;;;;;;;5.95;2.78;;;6.10;99.90;;;;;;5092662;28;20382;-71
2023/11/26 12:27:13;;;;;;;11.30;2.78;;;6.10;99.90;;;;;;5091997;28;20052;-71
2023/11/26 12:29:39;;;;;;;8.85;2.65;;;6.20;99.90;;;;;;5088080;28;20047;-70
2023/11/26 12:32:08;;;;;;;8.02;2.90;;;6.20;99.90;;;;;;5093001;28;20085;-69
2023/11/26 12:34:37;;;;;;;8.68;2.75;;;6.30;99.90;;;;;;5091557;28;20131;-69
2023/11/26 12:37:04;;;;;;;9.10;2.72;;;6.30;99.90;;;;;;5089858;28;20051;-70
2023/11/26 12:39:31;;;;;;;7.68;2.70;;;6.40;99.90;;;;;;5092659;28;20050;-70
2023/11/26 12:41:58;;;;;;;7.25;2.50;;;6.50;99.90;;;;;;5091282;28;20036;-72
2023/11/26 12:44:25;;;;;;;7.22;2.33;;;6.50;99.90;;;;;;5087328;28;20044;-71
2023/11/26 12:46:52;;;;;;;6.82;2.40;;;6.60;99.90;;;;;;5080125;28;20051;-72